Akeley, Minnesota
Current Conditions -  °F | °C
As of 8:55 PM on Tuesday 25 Nov 2014 (Local Time) from KY49 Reporting Station
Overcast Overcast  
Wind Chill: 19°   Ceiling: 2400
Heat Index: 19°   Visibility: 10mi
Dew Point:   Wind: 3mph
Humidity: 64%   Direction: 120°ESE
Pressure: 29.98"   Gusts: NA
Location:  47°N, 94.73°W
Report Text: KY49 260255Z AUTO 12003KT 10SM OVC024 M07/M13 A2998 RMK AO2 T10751133
Loading
Personal Weather Stations






























Interactive Weather Map New forecast layout! Learn more

10-Day Weather Forecast

Advertisements
Track Severe Weather on mobile